createdAt,value
2022-10-08T00:01:19.988Z,100428.00
2022-10-08T00:03:52.445Z,100426.00
2022-10-08T00:06:22.419Z,100415.00
2022-10-08T00:08:52.852Z,100412.00
2022-10-08T00:11:22.997Z,100411.00
2022-10-08T00:13:53.320Z,100410.00
2022-10-08T00:16:24.374Z,100415.00
2022-10-08T00:18:56.518Z,100407.00
2022-10-08T00:21:28.138Z,100410.00
2022-10-08T00:23:58.013Z,100398.00
2022-10-08T00:26:28.997Z,100398.00
2022-10-08T00:28:59.265Z,100394.00
2022-10-08T00:31:30.372Z,100395.00
2022-10-08T00:34:01.679Z,100397.00
2022-10-08T00:36:32.609Z,100401.00
2022-10-08T00:39:02.865Z,100389.00
2022-10-08T00:41:34.520Z,100394.00
2022-10-08T00:44:05.133Z,100397.00
2022-10-08T00:46:38.410Z,100395.00
2022-10-08T00:49:15.155Z,100386.00
2022-10-08T00:51:49.615Z,100389.00
2022-10-08T00:54:19.709Z,100388.00
2022-10-08T00:56:51.611Z,100385.00
2022-10-08T00:59:21.009Z,100367.00
2022-10-08T01:01:49.705Z,100373.00
2022-10-08T01:04:19.823Z,100362.00
2022-10-08T01:06:55.484Z,100364.00
2022-10-08T01:09:30.630Z,100358.00
2022-10-08T01:12:07.674Z,100360.00
2022-10-08T01:14:45.028Z,100363.00
2022-10-08T01:17:22.697Z,100357.00
2022-10-08T01:20:31.690Z,100360.00
2022-10-08T01:23:29.633Z,100347.00
2022-10-08T01:26:04.631Z,100347.00
2022-10-08T01:28:40.404Z,100346.00
2022-10-08T01:31:13.565Z,100341.00
2022-10-08T01:33:54.979Z,100342.00
2022-10-08T01:36:24.595Z,100339.00
2022-10-08T01:38:57.186Z,100340.00
2022-10-08T01:41:29.497Z,100338.00
2022-10-08T01:44:03.682Z,100338.00
2022-10-08T01:46:34.129Z,100336.00
2022-10-08T01:49:07.841Z,100332.00
2022-10-08T01:51:41.642Z,100335.00
2022-10-08T01:54:16.451Z,100323.00
2022-10-08T01:56:47.597Z,100322.00
2022-10-08T01:59:22.990Z,100323.00
2022-10-08T02:01:57.425Z,100323.00
2022-10-08T02:04:37.232Z,100320.00
2022-10-08T02:07:09.606Z,100316.00
2022-10-08T02:09:41.274Z,100311.00
2022-10-08T02:12:10.936Z,100321.00
2022-10-08T02:14:48.446Z,100303.00
2022-10-08T02:17:26.424Z,100305.00
2022-10-08T02:19:58.643Z,100295.00
2022-10-08T02:22:33.286Z,100302.00
2022-10-08T02:25:07.584Z,100301.00
2022-10-08T02:27:44.676Z,100299.00
2022-10-08T02:30:15.385Z,100301.00
2022-10-08T02:32:52.300Z,100301.00
2022-10-08T02:35:26.954Z,100303.00
2022-10-08T02:38:00.701Z,100310.00
2022-10-08T02:40:31.584Z,100304.00
2022-10-08T02:43:07.613Z,100307.00
2022-10-08T02:45:44.088Z,100306.00
2022-10-08T02:48:18.428Z,100305.00
2022-10-08T02:50:50.339Z,100302.00
2022-10-08T02:53:20.415Z,100309.00
2022-10-08T02:55:54.796Z,100295.00
2022-10-08T02:58:23.839Z,100302.00
2022-10-08T03:01:00.144Z,100308.00
2022-10-08T03:03:33.677Z,100304.00
2022-10-08T03:06:05.964Z,100308.00
2022-10-08T03:08:36.670Z,100296.00
2022-10-08T03:11:06.277Z,100308.00
2022-10-08T03:13:37.999Z,100304.00
2022-10-08T03:16:09.956Z,100306.00
2022-10-08T03:18:39.388Z,100305.00
2022-10-08T03:21:12.990Z,100307.00
2022-10-08T03:23:41.640Z,100299.00
2022-10-08T03:26:10.226Z,100310.00
2022-10-08T03:28:38.751Z,100315.00
2022-10-08T03:31:08.925Z,100308.00
2022-10-08T03:33:38.077Z,100304.00
2022-10-08T03:36:07.629Z,100306.00
2022-10-08T03:38:36.907Z,100313.00
2022-10-08T03:41:05.391Z,100307.00
2022-10-08T03:43:34.973Z,100301.00
2022-10-08T03:46:04.356Z,100307.00
2022-10-08T03:48:34.687Z,100300.00
2022-10-08T03:51:05.357Z,100307.00
2022-10-08T03:53:35.906Z,100299.00
2022-10-08T03:56:06.456Z,100296.00
2022-10-08T03:58:35.444Z,100293.00
2022-10-08T04:01:06.137Z,100300.00
2022-10-08T04:03:36.278Z,100299.00
2022-10-08T04:06:05.364Z,100303.00
2022-10-08T04:08:35.268Z,100303.00
2022-10-08T04:11:05.023Z,100308.00
2022-10-08T04:13:34.133Z,100311.00
2022-10-08T04:16:05.247Z,100309.00
2022-10-08T04:18:35.432Z,100305.00
2022-10-08T04:21:06.994Z,100304.00
2022-10-08T04:23:38.205Z,100311.00
2022-10-08T04:26:08.496Z,100304.00
2022-10-08T04:28:39.029Z,100303.00
2022-10-08T04:31:09.825Z,100313.00
2022-10-08T04:33:40.260Z,100311.00
2022-10-08T04:36:10.455Z,100300.00
2022-10-08T04:38:39.310Z,100306.00
2022-10-08T04:41:09.733Z,100308.00
2022-10-08T04:43:39.572Z,100311.00
2022-10-08T04:46:10.308Z,100305.00
2022-10-08T04:48:41.034Z,100301.00
2022-10-08T04:51:10.935Z,100301.00
2022-10-08T04:53:40.097Z,100302.00
2022-10-08T04:56:14.985Z,100314.00
2022-10-08T04:58:43.762Z,100309.00
2022-10-08T05:01:14.602Z,100316.00
2022-10-08T05:03:46.424Z,100310.00
2022-10-08T05:06:16.655Z,100309.00
2022-10-08T05:08:45.627Z,100306.00
2022-10-08T05:11:14.879Z,100316.00
2022-10-08T05:13:44.019Z,100312.00
2022-10-08T05:16:14.490Z,100311.00
2022-10-08T05:18:44.512Z,100317.00
2022-10-08T05:21:14.966Z,100311.00
2022-10-08T05:23:44.247Z,100309.00
2022-10-08T05:26:17.104Z,100311.00
2022-10-08T05:28:47.241Z,100321.00
2022-10-08T05:31:16.182Z,100325.00
2022-10-08T05:33:46.568Z,100335.00
2022-10-08T05:36:18.867Z,100338.00
2022-10-08T05:38:47.767Z,100346.00
2022-10-08T05:41:17.831Z,100338.00
2022-10-08T05:43:47.414Z,100347.00
2022-10-08T05:46:17.009Z,100349.00
2022-10-08T05:48:47.081Z,100359.00
2022-10-08T05:51:17.502Z,100365.00
2022-10-08T05:53:51.982Z,100362.00
2022-10-08T05:56:22.184Z,100364.00
2022-10-08T05:58:51.671Z,100355.00
2022-10-08T06:01:22.642Z,100354.00
2022-10-08T06:03:54.210Z,100358.00
2022-10-08T06:06:23.831Z,100366.00
2022-10-08T06:08:55.987Z,100366.00
2022-10-08T06:11:24.563Z,100369.00
2022-10-08T06:13:54.762Z,100376.00
2022-10-08T06:16:23.623Z,100378.00
2022-10-08T06:18:53.597Z,100381.00
2022-10-08T06:21:23.799Z,100398.00
2022-10-08T06:23:54.109Z,100394.00
2022-10-08T06:26:23.689Z,100395.00
2022-10-08T06:28:52.303Z,100408.00
2022-10-08T06:31:21.083Z,100404.00
2022-10-08T06:33:49.943Z,100400.00
2022-10-08T06:36:24.270Z,100411.00
2022-10-08T06:38:54.182Z,100419.00
2022-10-08T06:41:23.274Z,100407.00
2022-10-08T06:43:51.778Z,100421.00
2022-10-08T06:46:21.102Z,100413.00
2022-10-08T06:48:49.951Z,100420.00
2022-10-08T06:51:20.471Z,100418.00
2022-10-08T06:53:55.156Z,100420.00
2022-10-08T06:56:24.402Z,100422.00
2022-10-08T06:58:53.210Z,100416.00
2022-10-08T07:01:26.780Z,100416.00
2022-10-08T07:04:00.460Z,100426.00
2022-10-08T07:06:30.858Z,100435.00
2022-10-08T07:09:01.301Z,100440.00
2022-10-08T07:11:32.441Z,100434.00
2022-10-08T07:14:01.480Z,100429.00
2022-10-08T07:16:30.290Z,100447.00
2022-10-08T07:18:59.411Z,100442.00
2022-10-08T07:21:30.022Z,100452.00
2022-10-08T07:24:00.848Z,100442.00
2022-10-08T07:26:32.466Z,100449.00
2022-10-08T07:29:02.704Z,100447.00
2022-10-08T07:31:33.727Z,100456.00
2022-10-08T07:34:04.572Z,100449.00
2022-10-08T07:36:34.942Z,100446.00
2022-10-08T07:39:06.268Z,100456.00
2022-10-08T07:41:35.435Z,100465.00
2022-10-08T07:44:05.405Z,100458.00
2022-10-08T07:46:35.818Z,100463.00
2022-10-08T07:49:05.005Z,100458.00
2022-10-08T07:51:35.783Z,100466.00
2022-10-08T07:54:07.263Z,100467.00
2022-10-08T07:56:36.818Z,100473.00
2022-10-08T07:59:06.492Z,100469.00
2022-10-08T08:01:35.655Z,100464.00
2022-10-08T08:04:06.368Z,100470.00
2022-10-08T08:06:40.635Z,100464.00
2022-10-08T08:09:09.562Z,100479.00
2022-10-08T08:11:39.981Z,100464.00
2022-10-08T08:14:08.835Z,100465.00
2022-10-08T08:16:37.495Z,100470.00
2022-10-08T08:19:06.118Z,100464.00
2022-10-08T08:21:38.170Z,100474.00
2022-10-08T08:24:10.095Z,100478.00
2022-10-08T08:26:39.927Z,100473.00
2022-10-08T08:29:10.965Z,100477.00
2022-10-08T08:31:41.447Z,100469.00
2022-10-08T08:34:12.984Z,100470.00
2022-10-08T08:36:44.681Z,100463.00
2022-10-08T08:39:17.382Z,100474.00
2022-10-08T08:42:17.593Z,100474.00
2022-10-08T08:44:48.111Z,100476.00
2022-10-08T08:47:21.486Z,100469.00
2022-10-08T08:49:54.388Z,100475.00
2022-10-08T08:52:26.315Z,100483.00
2022-10-08T08:54:55.177Z,100487.00
2022-10-08T08:57:36.999Z,100495.00
2022-10-08T09:00:11.574Z,100490.00
2022-10-08T09:02:50.918Z,100485.00
2022-10-08T09:05:20.910Z,100485.00
2022-10-08T09:07:56.642Z,100493.00
2022-10-08T09:10:34.790Z,100492.00
2022-10-08T09:13:03.764Z,100494.00
2022-10-08T09:15:37.409Z,100496.00
2022-10-08T09:18:06.527Z,100501.00
2022-10-08T09:20:40.098Z,100499.00
2022-10-08T09:23:16.548Z,100509.00
2022-10-08T09:25:49.292Z,100514.00
2022-10-08T09:28:40.541Z,100516.00
2022-10-08T09:31:27.965Z,100513.00
2022-10-08T09:34:05.352Z,100514.00
2022-10-08T09:36:37.791Z,100512.00
2022-10-08T09:39:18.643Z,100518.00
2022-10-08T09:41:48.616Z,100511.00
2022-10-08T09:44:21.017Z,100513.00
2022-10-08T09:47:04.865Z,100518.00
2022-10-08T09:49:35.579Z,100516.00
2022-10-08T09:52:11.395Z,100517.00
2022-10-08T09:54:48.977Z,100518.00
2022-10-08T09:57:18.889Z,100529.00
2022-10-08T09:59:53.014Z,100524.00
2022-10-08T10:02:38.009Z,100524.00
2022-10-08T10:05:08.382Z,100530.00
2022-10-08T10:07:42.293Z,100531.00
2022-10-08T10:10:29.031Z,100527.00
2022-10-08T10:13:04.206Z,100521.00
2022-10-08T10:15:38.446Z,100519.00
2022-10-08T10:18:13.286Z,100524.00
2022-10-08T10:20:44.374Z,100524.00
2022-10-08T10:23:17.652Z,100530.00
2022-10-08T10:25:51.773Z,100522.00
2022-10-08T10:28:29.223Z,100517.00
2022-10-08T10:31:02.909Z,100516.00
2022-10-08T10:33:34.014Z,100532.00
2022-10-08T10:36:06.805Z,100530.00
2022-10-08T10:38:43.207Z,100527.00
2022-10-08T10:41:20.911Z,100520.00
2022-10-08T10:43:53.348Z,100526.00
2022-10-08T10:46:29.619Z,100528.00
2022-10-08T10:49:02.249Z,100525.00
2022-10-08T10:51:45.088Z,100536.00
2022-10-08T10:54:39.055Z,100524.00
2022-10-08T10:57:19.232Z,100510.00
2022-10-08T10:59:54.433Z,100518.00
2022-10-08T11:02:28.788Z,100525.00
2022-10-08T11:05:07.430Z,100530.00
2022-10-08T11:08:03.889Z,100514.00
2022-10-08T11:10:44.828Z,100522.00
2022-10-08T11:13:29.955Z,100528.00
2022-10-08T11:16:09.813Z,100523.00
2022-10-08T11:18:46.793Z,100513.00
2022-10-08T11:21:28.717Z,100517.00
2022-10-08T11:24:22.530Z,100518.00
2022-10-08T11:27:00.617Z,100516.00
2022-10-08T11:29:39.404Z,100520.00
2022-10-08T11:32:13.781Z,100512.00
2022-10-08T11:34:47.755Z,100504.00
2022-10-08T11:37:24.585Z,100512.00
2022-10-08T11:40:04.185Z,100510.00
2022-10-08T11:42:46.218Z,100513.00
2022-10-08T11:45:32.647Z,100506.00
2022-10-08T11:48:05.409Z,100512.00
2022-10-08T11:50:40.984Z,100508.00
2022-10-08T11:53:21.003Z,100511.00
2022-10-08T11:55:53.804Z,100504.00
2022-10-08T11:58:28.021Z,100498.00
2022-10-08T12:01:07.357Z,100509.00
2022-10-08T12:03:38.707Z,100502.00
2022-10-08T12:06:18.383Z,100497.00
2022-10-08T12:08:53.617Z,100501.00
2022-10-08T12:11:48.767Z,100503.00
2022-10-08T12:14:46.665Z,100501.00
2022-10-08T12:17:18.270Z,100506.00
2022-10-08T12:20:21.516Z,100500.00
2022-10-08T12:23:08.298Z,100501.00
2022-10-08T12:25:40.192Z,100495.00
2022-10-08T12:28:46.407Z,100505.00
2022-10-08T12:31:31.032Z,100498.00
2022-10-08T12:34:04.933Z,100508.00
2022-10-08T12:36:45.380Z,100497.00
2022-10-08T12:39:34.866Z,100494.00
2022-10-08T12:42:13.053Z,100502.00
2022-10-08T12:44:52.252Z,100504.00
2022-10-08T12:47:35.919Z,100509.00
2022-10-08T12:50:20.068Z,100505.00
2022-10-08T12:52:49.508Z,100505.00
2022-10-08T12:55:22.232Z,100504.00
2022-10-08T12:57:52.182Z,100498.00
2022-10-08T13:00:27.645Z,100505.00
2022-10-08T13:03:08.043Z,100512.00
2022-10-08T13:05:45.303Z,100522.00
2022-10-08T13:08:35.116Z,100519.00
2022-10-08T13:11:08.733Z,100522.00
2022-10-08T13:13:49.252Z,100530.00
2022-10-08T13:16:20.904Z,100524.00
2022-10-08T13:18:53.823Z,100532.00
2022-10-08T13:21:37.255Z,100522.00
2022-10-08T13:24:39.165Z,100542.00
2022-10-08T13:27:28.172Z,100538.00
2022-10-08T13:29:58.858Z,100548.00
2022-10-08T13:32:30.008Z,100544.00
2022-10-08T13:35:01.731Z,100546.00
2022-10-08T13:37:36.423Z,100552.00
2022-10-08T13:40:19.540Z,100558.00
2022-10-08T13:42:52.006Z,100562.00
2022-10-08T13:45:23.202Z,100546.00
2022-10-08T13:47:52.263Z,100556.00
2022-10-08T13:50:22.775Z,100563.00
2022-10-08T13:52:55.115Z,100564.00
2022-10-08T13:55:27.636Z,100578.00
2022-10-08T13:57:57.352Z,100572.00
2022-10-08T14:00:27.593Z,100583.00
2022-10-08T14:02:57.169Z,100577.00
2022-10-08T14:05:29.965Z,100578.00
2022-10-08T14:08:09.941Z,100574.00
2022-10-08T14:10:41.028Z,100581.00
2022-10-08T14:13:11.174Z,100567.00
2022-10-08T14:15:55.513Z,100579.00
2022-10-08T14:18:27.855Z,100580.00
2022-10-08T14:20:57.159Z,100576.00
2022-10-08T14:23:28.372Z,100583.00
2022-10-08T14:25:57.525Z,100582.00
2022-10-08T14:28:26.470Z,100579.00
2022-10-08T14:30:54.970Z,100590.00
2022-10-08T14:33:23.551Z,100588.00
2022-10-08T14:35:53.670Z,100588.00
2022-10-08T14:38:22.399Z,100594.00
2022-10-08T14:40:52.425Z,100588.00
2022-10-08T14:43:22.050Z,100606.00
2022-10-08T14:45:53.517Z,100593.00
2022-10-08T14:48:22.448Z,100601.00
2022-10-08T14:50:51.048Z,100606.00
2022-10-08T14:53:19.709Z,100603.00
2022-10-08T14:56:11.051Z,100604.00
2022-10-08T14:58:39.653Z,100600.00
2022-10-08T15:01:08.613Z,100614.00
2022-10-08T15:03:37.706Z,100609.00
2022-10-08T15:06:06.515Z,100607.00
2022-10-08T15:08:35.824Z,100615.00
2022-10-08T15:11:04.932Z,100611.00
2022-10-08T15:13:33.827Z,100616.00
2022-10-08T15:16:04.545Z,100629.00
2022-10-08T15:18:33.404Z,100639.00
2022-10-08T15:21:02.437Z,100633.00
2022-10-08T15:23:30.928Z,100622.00
2022-10-08T15:26:00.869Z,100635.00
2022-10-08T15:28:30.027Z,100638.00
2022-10-08T15:31:08.929Z,100644.00
2022-10-08T15:33:41.233Z,100649.00
2022-10-08T15:36:19.639Z,100649.00
2022-10-08T15:38:49.138Z,100644.00
2022-10-08T15:41:18.344Z,100648.00
2022-10-08T15:43:47.201Z,100645.00
2022-10-08T15:46:20.277Z,100658.00
2022-10-08T15:48:56.303Z,100656.00
2022-10-08T15:51:25.762Z,100653.00
2022-10-08T15:53:54.237Z,100652.00
2022-10-08T15:56:22.748Z,100659.00
2022-10-08T15:58:51.870Z,100662.00
2022-10-08T16:01:23.966Z,100669.00
2022-10-08T16:03:54.965Z,100665.00
2022-10-08T16:06:25.149Z,100672.00
2022-10-08T16:08:54.237Z,100679.00
2022-10-08T16:11:24.315Z,100683.00
2022-10-08T16:13:54.262Z,100682.00
2022-10-08T16:16:24.592Z,100685.00
2022-10-08T16:19:01.195Z,100680.00
2022-10-08T16:21:31.937Z,100678.00
2022-10-08T16:24:01.468Z,100685.00
2022-10-08T16:26:31.875Z,100694.00
2022-10-08T16:29:02.822Z,100700.00
2022-10-08T16:31:34.807Z,100701.00
2022-10-08T16:34:05.272Z,100711.00
2022-10-08T16:36:36.509Z,100724.00
2022-10-08T16:39:06.195Z,100730.00
2022-10-08T16:41:36.102Z,100726.00
2022-10-08T16:44:12.027Z,100740.00
2022-10-08T16:46:44.504Z,100742.00
2022-10-08T16:49:21.102Z,100731.00
2022-10-08T16:51:53.232Z,100748.00
2022-10-08T16:54:22.041Z,100736.00
2022-10-08T16:56:51.006Z,100741.00
2022-10-08T16:59:21.685Z,100740.00
2022-10-08T17:01:53.702Z,100748.00
2022-10-08T17:04:23.552Z,100751.00
2022-10-08T17:06:52.265Z,100756.00
2022-10-08T17:09:21.446Z,100755.00
2022-10-08T17:11:50.170Z,100764.00
2022-10-08T17:14:18.697Z,100767.00
2022-10-08T17:16:47.392Z,100775.00
2022-10-08T17:19:17.449Z,100776.00
2022-10-08T17:21:46.399Z,100773.00
2022-10-08T17:24:15.192Z,100789.00
2022-10-08T17:26:43.656Z,100787.00
2022-10-08T17:29:13.455Z,100789.00
2022-10-08T17:31:42.299Z,100797.00
2022-10-08T17:34:11.754Z,100788.00
2022-10-08T17:36:44.111Z,100797.00
2022-10-08T17:39:15.024Z,100802.00
2022-10-08T17:41:44.340Z,100805.00
2022-10-08T17:44:12.963Z,100809.00
2022-10-08T17:46:45.425Z,100810.00
2022-10-08T17:49:15.205Z,100819.00
2022-10-08T17:51:45.653Z,100820.00
2022-10-08T17:54:16.374Z,100824.00
2022-10-08T17:56:44.928Z,100832.00
2022-10-08T17:59:15.789Z,100836.00
2022-10-08T18:01:45.555Z,100843.00
2022-10-08T18:04:16.568Z,100848.00
2022-10-08T18:06:48.012Z,100850.00
2022-10-08T18:09:19.347Z,100850.00
2022-10-08T18:11:51.952Z,100864.00
2022-10-08T18:14:20.947Z,100854.00
2022-10-08T18:16:49.435Z,100861.00
2022-10-08T18:19:18.782Z,100863.00
2022-10-08T18:21:48.660Z,100878.00
2022-10-08T18:24:17.822Z,100867.00
2022-10-08T18:26:46.786Z,100882.00
2022-10-08T18:29:16.504Z,100882.00
2022-10-08T18:31:46.848Z,100880.00
2022-10-08T18:34:17.321Z,100886.00
2022-10-08T18:36:47.661Z,100882.00
2022-10-08T18:39:18.033Z,100892.00
2022-10-08T18:41:48.100Z,100903.00
2022-10-08T18:44:18.130Z,100895.00
2022-10-08T18:46:47.241Z,100906.00
2022-10-08T18:49:17.139Z,100908.00
2022-10-08T18:51:49.524Z,100911.00
2022-10-08T18:54:18.115Z,100910.00
2022-10-08T18:56:46.602Z,100917.00
2022-10-08T18:59:16.883Z,100922.00
2022-10-08T19:01:47.394Z,100920.00
2022-10-08T19:04:18.106Z,100929.00
2022-10-08T19:06:53.426Z,100933.00
2022-10-08T19:09:22.623Z,100934.00
2022-10-08T19:11:52.741Z,100929.00
2022-10-08T19:14:23.275Z,100937.00
2022-10-08T19:16:52.214Z,100931.00
2022-10-08T19:19:22.057Z,100938.00
2022-10-08T19:21:54.153Z,100946.00
2022-10-08T19:24:24.415Z,100950.00
2022-10-08T19:26:53.878Z,100951.00
2022-10-08T19:29:24.551Z,100963.00
2022-10-08T19:31:53.161Z,100969.00
2022-10-08T19:34:23.656Z,100965.00
2022-10-08T19:36:53.675Z,100978.00
2022-10-08T19:39:23.576Z,100982.00
2022-10-08T19:41:52.074Z,100977.00
2022-10-08T19:44:20.985Z,100974.00
2022-10-08T19:46:49.783Z,100977.00
2022-10-08T19:49:18.948Z,100981.00
2022-10-08T19:51:47.427Z,100985.00
2022-10-08T19:54:18.319Z,100987.00
2022-10-08T19:56:47.207Z,100994.00
2022-10-08T19:59:16.275Z,100989.00
2022-10-08T20:01:44.958Z,100997.00
2022-10-08T20:04:14.035Z,100997.00
2022-10-08T20:06:43.809Z,101007.00
2022-10-08T20:09:14.163Z,101002.00
2022-10-08T20:11:45.063Z,101017.00
2022-10-08T20:14:14.375Z,101016.00
2022-10-08T20:16:44.083Z,101017.00
2022-10-08T20:19:17.083Z,101013.00
2022-10-08T20:21:45.832Z,101018.00
2022-10-08T20:24:14.681Z,101026.00
2022-10-08T20:26:45.675Z,101025.00
2022-10-08T20:29:16.829Z,101030.00
2022-10-08T20:31:49.206Z,101026.00
2022-10-08T20:34:18.945Z,101042.00
2022-10-08T20:36:48.717Z,101046.00
2022-10-08T20:39:18.632Z,101047.00
2022-10-08T20:41:49.131Z,101036.00
2022-10-08T20:44:17.928Z,101047.00
2022-10-08T20:46:46.735Z,101044.00
2022-10-08T20:49:15.302Z,101048.00
2022-10-08T20:51:44.848Z,101056.00
2022-10-08T20:54:15.477Z,101052.00
2022-10-08T20:56:44.289Z,101055.00
2022-10-08T20:59:17.254Z,101069.00
2022-10-08T21:01:46.037Z,101064.00
2022-10-08T21:04:14.582Z,101069.00
2022-10-08T21:06:45.562Z,101068.00
2022-10-08T21:09:15.421Z,101074.00
2022-10-08T21:11:45.828Z,101066.00
2022-10-08T21:14:17.962Z,101076.00
2022-10-08T21:16:46.886Z,101075.00
2022-10-08T21:19:18.751Z,101078.00
2022-10-08T21:21:47.287Z,101082.00
2022-10-08T21:24:16.100Z,101079.00
2022-10-08T21:26:44.637Z,101082.00
2022-10-08T21:29:16.245Z,101082.00
2022-10-08T21:31:44.975Z,101081.00
2022-10-08T21:34:13.838Z,101083.00
2022-10-08T21:36:44.603Z,101096.00
2022-10-08T21:39:17.403Z,101091.00
2022-10-08T21:41:46.895Z,101086.00
2022-10-08T21:44:16.914Z,101084.00
2022-10-08T21:46:45.901Z,101085.00
2022-10-08T21:49:15.902Z,101090.00
2022-10-08T21:51:44.943Z,101096.00
2022-10-08T21:54:14.259Z,101095.00
2022-10-08T21:56:43.639Z,101100.00
2022-10-08T21:59:14.517Z,101101.00
2022-10-08T22:01:46.743Z,101109.00
2022-10-08T22:04:17.668Z,101103.00
2022-10-08T22:06:48.271Z,101093.00
2022-10-08T22:09:19.276Z,101112.00
2022-10-08T22:11:47.956Z,101101.00
2022-10-08T22:14:16.807Z,101111.00
2022-10-08T22:16:47.400Z,101110.00
2022-10-08T22:19:16.241Z,101101.00
2022-10-08T22:21:45.087Z,101107.00
2022-10-08T22:24:13.965Z,101112.00
2022-10-08T22:26:44.328Z,101104.00
2022-10-08T22:29:13.446Z,101107.00
2022-10-08T22:31:41.958Z,101100.00
2022-10-08T22:34:12.048Z,101106.00
2022-10-08T22:36:42.621Z,101115.00
2022-10-08T22:39:11.802Z,101115.00
2022-10-08T22:41:40.269Z,101120.00
2022-10-08T22:44:08.998Z,101127.00
2022-10-08T22:46:39.697Z,101115.00
2022-10-08T22:49:09.821Z,101116.00
2022-10-08T22:51:40.624Z,101120.00
2022-10-08T22:54:10.018Z,101121.00
2022-10-08T22:56:38.651Z,101116.00
2022-10-08T22:59:07.102Z,101123.00
2022-10-08T23:01:35.588Z,101116.00
2022-10-08T23:04:04.082Z,101121.00
2022-10-08T23:06:34.206Z,101121.00
2022-10-08T23:09:06.528Z,101120.00
2022-10-08T23:11:35.408Z,101127.00
2022-10-08T23:14:04.158Z,101141.00
2022-10-08T23:16:33.939Z,101141.00
2022-10-08T23:19:04.064Z,101143.00
2022-10-08T23:21:33.172Z,101144.00
2022-10-08T23:24:03.098Z,101143.00
2022-10-08T23:26:31.747Z,101144.00
2022-10-08T23:29:01.441Z,101156.00
2022-10-08T23:31:31.891Z,101157.00
2022-10-08T23:34:00.844Z,101155.00
2022-10-08T23:36:31.348Z,101152.00
2022-10-08T23:39:00.347Z,101144.00
2022-10-08T23:41:30.423Z,101138.00
2022-10-08T23:43:59.258Z,101150.00
2022-10-08T23:46:29.706Z,101160.00
2022-10-08T23:48:59.191Z,101162.00
2022-10-08T23:51:29.301Z,101158.00
2022-10-08T23:53:57.740Z,101158.00
2022-10-08T23:56:26.216Z,101151.00
2022-10-08T23:58:56.282Z,101162.00
